Euskara    
Meteorología y climatología de Navarra
Datos de la estación - Meteo Navarra

Estación de Bardenas (El Yugo) GN

Altitud 486 m.


Datos desde el 23/02/2021 hasta el 24/02/2021 en horario solar
Los datos son PROVISIONALES

Anterior Página 1 de 1 Siguiente Descargar: Formato para Excel 2000 o superior   Formato csv   Formato para OpenOffice Calc
Fecha Temperatura Humedad relativa Radiación global Insolación Precipitación Vel. viento 10 m Vel. viento 10 m Dir. viento 10 m
°C % W/m² s l/m² m/s km/h °
23/02/2021 0:00 5.2 94 0.0 0 0.0 1.5 5.4 118
23/02/2021 0:10 4.9 94 0.0 0 0.0 1.7 6.0 138
23/02/2021 0:20 4.9 95 0.0 0 0.0 1.4 4.9 155
23/02/2021 0:30 5.2 95 0.0 0 0.0 1.4 5.0 157
23/02/2021 0:40 5.3 95 0.0 0 0.0 1.9 6.7 120
23/02/2021 0:50 5.3 95 0.0 0 0.0 2.2 7.7 112
23/02/2021 1:00 5.3 95 0.0 0 0.0 2.4 8.5 122
23/02/2021 1:10 5.4 95 0.0 0 0.0 2.6 9.2 124
23/02/2021 1:20 5.5 95 0.0 0 0.0 2.8 10.0 120
23/02/2021 1:30 5.5 95 0.0 0 0.0 2.9 10.4 141
23/02/2021 1:40 5.5 95 0.0 0 0.0 2.0 7.1 157
23/02/2021 1:50 5.5 95 0.0 0 0.0 2.0 7.1 170
23/02/2021 2:00 5.4 95 0.0 0 0.0 2.4 8.7 167
23/02/2021 2:10 5.4 95 0.0 0 0.0 2.6 9.4 163
23/02/2021 2:20 5.4 95 0.0 0 0.0 2.8 10.2 169
23/02/2021 2:30 5.5 95 0.0 0 0.0 2.7 9.8 176
23/02/2021 2:40 5.4 95 0.0 0 0.0 3.0 10.6 163
23/02/2021 2:50 5.5 95 0.0 0 0.0 2.7 9.7 173
23/02/2021 3:00 5.4 95 0.0 0 0.0 2.8 10.2 171
23/02/2021 3:10 5.4 95 0.0 0 0.0 3.1 11.1 161
23/02/2021 3:20 5.3 95 0.0 0 0.0 2.9 10.3 168
23/02/2021 3:30 5.3 95 0.0 0 0.0 3.4 12.2 179
23/02/2021 3:40 5.2 96 0.0 0 0.0 3.3 12.0 163
23/02/2021 3:50 5.2 96 0.0 0 0.0 3.3 12.0 160
23/02/2021 4:00 5.1 96 0.0 0 0.0 3.2 11.6 162
23/02/2021 4:10 5.1 96 0.0 0 0.0 3.5 12.5 159
23/02/2021 4:20 5.2 96 0.0 0 0.0 3.2 11.3 156
23/02/2021 4:30 5.4 96 0.0 0 0.0 3.2 11.6 167
23/02/2021 4:40 5.5 95 0.0 0 0.0 2.7 9.8 141
23/02/2021 4:50 5.5 94 0.0 0 0.0 2.4 8.6 119
23/02/2021 5:00 5.4 94 0.0 0 0.0 2.8 10.1 112
23/02/2021 5:10 5.4 95 0.0 0 0.0 3.0 10.9 113
23/02/2021 5:20 5.4 95 0.0 0 0.0 3.3 11.8 104
23/02/2021 5:30 5.4 95 0.0 0 0.0 3.1 11.1 109
23/02/2021 5:40 5.2 95 0.0 0 0.0 3.1 11.3 108
23/02/2021 5:50 5.1 96 0.0 0 0.0 3.2 11.5 114
23/02/2021 6:00 5.1 97 0.0 0 0.0 2.8 10.2 115
23/02/2021 6:10 5.1 97 0.0 0 0.0 2.8 10.2 121
23/02/2021 6:20 5.0 96 0.0 0 0.0 2.1 7.6 121
23/02/2021 6:30 4.8 96 0.0 0 0.0 3.0 10.8 130
23/02/2021 6:40 4.9 96 0.0 0 0.0 3.5 12.7 156
23/02/2021 6:50 4.8 95 0.0 0 0.0 2.9 10.6 149
23/02/2021 7:00 4.5 95 0.0 0 0.0 2.4 8.5 119
23/02/2021 7:10 4.3 96 0.3 0 0.0 3.1 11.1 150
23/02/2021 7:20 4.4 97 38.2 484 0.0 3.0 10.7 160
23/02/2021 7:30 4.5 97 62.3 600 0.0 2.6 9.3 149
23/02/2021 7:40 4.7 98 86.0 600 0.0 3.0 10.8 148
23/02/2021 7:50 5.3 98 115.8 600 0.0 2.8 10.1 134
23/02/2021 8:00 6.1 93 145.8 600 0.0 2.9 10.3 131
23/02/2021 8:10 6.6 90 176.6 600 0.0 2.9 10.4 144
23/02/2021 8:20 6.9 88 208.4 600 0.0 2.9 10.5 146
23/02/2021 8:30 7.1 86 239.6 600 0.0 3.7 13.2 140
23/02/2021 8:40 7.3 86 269.8 600 0.0 3.9 13.9 146
23/02/2021 8:50 7.6 85 283.8 578 0.0 3.8 13.8 146
23/02/2021 9:00 7.3 86 188.8 282 0.0 3.9 13.9 145
23/02/2021 9:10 7.4 87 291.5 466 0.0 3.4 12.1 132
23/02/2021 9:20 8.3 82 391.2 600 0.0 4.9 17.7 145
23/02/2021 9:30 8.9 80 406.0 600 0.0 3.9 14.1 156
23/02/2021 9:40 9.2 78 408.3 566 0.0 5.0 17.8 165
23/02/2021 9:50 9.3 76 453.1 600 0.0 5.3 19.2 161
23/02/2021 10:00 9.4 77 476.2 594 0.0 4.7 16.8 161
23/02/2021 10:10 9.8 76 488.0 570 0.0 4.8 17.4 161
23/02/2021 10:20 10.0 75 524.7 586 0.0 4.5 16.1 170
23/02/2021 10:30 10.4 74 544.4 596 0.0 5.4 19.5 172
23/02/2021 10:40 10.4 73 564.1 600 0.0 6.0 21.7 166
23/02/2021 10:50 10.3 71 582.1 600 0.0 6.7 24.2 165
23/02/2021 11:00 10.6 70 595.4 600 0.0 6.3 22.6 165
23/02/2021 11:10 10.8 69 610.7 600 0.0 6.5 23.5 160
23/02/2021 11:20 11.0 69 624.0 600 0.0 5.2 18.7 157
23/02/2021 11:30 11.6 66 636.7 600 0.0 6.1 22.0 155
23/02/2021 11:40 11.4 65 650.2 600 0.0 6.9 24.7 152
23/02/2021 11:50 11.7 64 659.2 600 0.0 6.1 22.1 150
23/02/2021 12:00 11.8 63 665.8 600 0.0 6.6 23.7 139
23/02/2021 12:10 11.8 64 669.9 600 0.0 6.4 23.2 148
23/02/2021 12:20 12.3 64 673.1 600 0.0 6.2 22.4 152
23/02/2021 12:30 12.6 63 671.8 600 0.0 6.2 22.1 144
23/02/2021 12:40 12.4 63 671.3 600 0.0 6.4 23.1 132
23/02/2021 12:50 12.3 64 667.8 600 0.0 6.4 23.1 135
23/02/2021 13:00 12.7 62 661.7 600 0.0 6.5 23.3 135
23/02/2021 13:10 12.6 61 648.9 600 0.0 6.9 24.8 134
23/02/2021 13:20 12.7 59 645.2 600 0.0 6.6 23.7 131
23/02/2021 13:30 13.2 58 633.5 600 0.0 5.7 20.7 129
23/02/2021 13:40 13.1 56 623.4 600 0.0 6.7 24.0 126
23/02/2021 13:50 13.4 55 609.3 600 0.0 6.5 23.4 133
23/02/2021 14:00 13.2 55 596.3 600 0.0 6.9 24.8 132
23/02/2021 14:10 13.5 57 575.7 600 0.0 7.4 26.5 138
23/02/2021 14:20 13.5 57 554.9 600 0.0 6.9 24.8 136
23/02/2021 14:30 13.8 58 539.5 600 0.0 5.9 21.3 134
23/02/2021 14:40 13.9 59 512.8 600 0.0 5.9 21.2 131
23/02/2021 14:50 13.6 59 489.1 600 0.0 6.8 24.3 125
23/02/2021 15:00 13.4 58 460.9 600 0.0 6.5 23.3 128
23/02/2021 15:10 13.5 57 431.7 600 0.0 6.0 21.5 128
23/02/2021 15:20 13.8 55 398.4 600 0.0 6.5 23.3 138
23/02/2021 15:30 13.5 56 374.3 600 0.0 6.3 22.5 135
23/02/2021 15:40 13.5 56 349.7 600 0.0 6.6 23.8 140
23/02/2021 15:50 13.4 56 324.7 600 0.0 7.3 26.2 143
23/02/2021 16:00 13.4 57 296.6 600 0.0 5.9 21.3 138
23/02/2021 16:10 13.4 56 262.8 600 0.0 5.5 19.9 138
23/02/2021 16:20 13.1 57 232.6 600 0.0 6.3 22.6 137
23/02/2021 16:30 12.9 59 204.6 600 0.0 6.0 21.6 138
23/02/2021 16:40 12.8 62 170.3 600 0.0 5.2 18.5 138
23/02/2021 16:50 12.7 63 139.4 600 0.0 6.1 21.9 141
23/02/2021 17:00 12.4 64 108.9 600 0.0 4.8 17.2 137
23/02/2021 17:10 12.1 66 79.4 600 0.0 3.8 13.8 137
23/02/2021 17:20 11.7 67 54.5 600 0.0 3.8 13.5 132
23/02/2021 17:30 11.4 69 35.3 474 0.0 4.3 15.3 136
23/02/2021 17:40 11.1 70 17.8 0 0.0 4.4 15.8 134
23/02/2021 17:50 10.8 71 0.0 0 0.0 4.3 15.6 140
23/02/2021 18:00 10.5 72 0.0 0 0.0 4.6 16.5 139
23/02/2021 18:10 10.4 73 0.0 0 0.0 4.9 17.5 137
23/02/2021 18:20 10.3 73 0.0 0 0.0 4.7 16.8 136
23/02/2021 18:30 10.2 74 0.0 0 0.0 4.8 17.2 136
23/02/2021 18:40 10.1 75 0.0 0 0.0 4.8 17.2 134
23/02/2021 18:50 10.0 75 0.0 0 0.0 5.0 18.0 133
23/02/2021 19:00 9.9 75 0.0 0 0.0 4.9 17.6 132
23/02/2021 19:10 10.0 75 0.0 0 0.0 5.1 18.2 130
23/02/2021 19:20 9.9 76 0.0 0 0.0 4.7 17.1 126
23/02/2021 19:30 10.0 76 0.0 0 0.0 4.9 17.6 127
23/02/2021 19:40 9.9 77 0.0 0 0.0 4.5 16.1 124
23/02/2021 19:50 9.9 77 0.0 0 0.0 4.9 17.6 123
23/02/2021 20:00 9.9 78 0.0 0 0.0 4.7 17.1 125
23/02/2021 20:10 9.9 78 0.0 0 0.0 4.6 16.6 127
23/02/2021 20:20 9.9 78 0.0 0 0.0 5.2 18.6 134
23/02/2021 20:30 9.9 78 0.0 0 0.0 5.3 19.1 146
23/02/2021 20:40 9.7 78 0.0 0 0.0 4.5 16.0 147
23/02/2021 20:50 9.4 80 0.0 0 0.0 4.4 15.7 147
23/02/2021 21:00 9.3 80 0.0 0 0.0 4.0 14.4 145
23/02/2021 21:10 9.3 81 0.0 0 0.0 4.1 14.6 139
23/02/2021 21:20 9.1 82 0.0 0 0.0 4.2 15.0 134
23/02/2021 21:30 9.2 82 0.0 0 0.0 4.3 15.5 130
23/02/2021 21:40 9.1 82 0.0 0 0.0 4.3 15.4 126
23/02/2021 21:50 9.0 83 0.0 0 0.0 4.7 16.7 127
23/02/2021 22:00 9.0 83 0.0 0 0.0 5.0 17.9 126
23/02/2021 22:10 8.9 84 0.0 0 0.0 4.9 17.5 121
23/02/2021 22:20 8.8 85 0.0 0 0.0 4.7 16.8 121
23/02/2021 22:30 8.6 85 0.0 0 0.0 4.8 17.2 120
23/02/2021 22:40 8.5 85 0.0 0 0.0 4.9 17.7 121
23/02/2021 22:50 8.5 85 0.0 0 0.0 4.6 16.5 118
23/02/2021 23:00 8.2 86 0.0 0 0.0 4.0 14.3 107
23/02/2021 23:10 7.5 88 0.0 0 0.0 4.1 14.8 108
23/02/2021 23:20 7.0 90 0.0 0 0.0 4.4 15.8 110
23/02/2021 23:30 7.2 90 0.0 0 0.0 4.4 15.9 109
23/02/2021 23:40 7.1 90 0.0 0 0.0 4.3 15.5 110
23/02/2021 23:50 7.1 90 0.0 0 0.0 4.4 15.7 112
Anterior Página 1 de 1 Siguiente

NOTA: Tipo de datos según el color:
   - Valores diarios o 10 minutos correctos
   - Valores diarios calculados a partir de un número de datos 10 minutos menor que 144 y mayor que 120, o de un número de datos semihorarios menor que 48 y mayor que 40 (caso de las estaciones de INTIA Y Ministerio)
   - Valores diez minutos estimados


Contacto        Enlaces        Aviso legal